To NAV CANADA Home Page Login to a new session Search on AWWS site Feedback and Comments Disclaimer Vers la page française équivalente Tips FAQ What's new on the site To the Forecasts and Observations / NOTAM section To "File a Flight Plan" website Publications and other links Update of the User's profile FIC Telephone Numbers My Weather Data Folder Route Weather Data Regional Weather Data Local Weather Data To the Forecasts and Observations / NOTAM section
Request Generated 08/05/2015 at 02:20:56 UTC . Weather information available at that time is displayed.

METAR/TAF

LA GRANDE-4/QC    (show WxCam)

METAR CYAH 050200Z AUTO 23004KT 9SM FEW050 14/13 A2965 RMK SLP048
DENSITY ALT 1400FT=
METAR CYAH 050100Z AUTO 25004KT 9SM FEW025 SCT034 BKN085 15/13 A2964
RMK SLP046 DENSITY ALT 1600FT=
METAR CYAH 050000Z AUTO 24006KT 9SM FEW042 SCT060 BKN083 16/13 A2964
RMK SLP044 DENSITY ALT 1600FT=

*** REMARK        : Forecast period has ended; this was the last TAF issued
*** REMARQUE : La période de prévision est échue; ceci était le dernier TAF qui a été émis
TAF CYAH 041738Z 0418/0421 22010G20KT P6SM FEW020 BKN030 TEMPO
0418/0421 BKN020
RMK FCST BASED ON AUTO OBS. NXT FCST WILL BE ISSUED AT 051045Z=
Your time UTC time
Weather data provided by Environment Canada and NAV CANADA